createdAt,value
2022-10-04T00:01:55.142Z,9.93
2022-10-04T00:07:11.998Z,9.75
2022-10-04T00:12:28.051Z,9.99
2022-10-04T00:17:31.949Z,10.05
2022-10-04T00:22:33.582Z,10.20
2022-10-04T00:27:36.908Z,10.18
2022-10-04T00:32:38.402Z,10.19
2022-10-04T00:38:16.995Z,10.09
2022-10-04T00:43:29.244Z,10.05
2022-10-04T00:48:34.117Z,10.06
2022-10-04T00:54:26.854Z,9.89
2022-10-04T00:59:31.381Z,9.92
2022-10-04T01:04:53.137Z,9.97
2022-10-04T01:09:59.975Z,9.92
2022-10-04T01:15:01.415Z,9.87
2022-10-04T01:20:31.700Z,9.89
2022-10-04T01:25:46.761Z,9.96
2022-10-04T01:30:48.804Z,9.89
2022-10-04T01:35:50.664Z,9.89
2022-10-04T01:40:57.480Z,9.98
2022-10-04T01:46:02.640Z,9.89
2022-10-04T01:51:17.048Z,9.88
2022-10-04T01:56:24.340Z,9.98
2022-10-04T02:01:34.387Z,10.04
2022-10-04T02:06:39.739Z,10.00
2022-10-04T02:11:44.545Z,9.97
2022-10-04T02:16:49.394Z,9.93
2022-10-04T02:21:52.212Z,9.80
2022-10-04T02:26:53.835Z,9.73
2022-10-04T02:31:55.433Z,9.66
2022-10-04T02:36:57.351Z,9.61
2022-10-04T02:42:35.202Z,9.59
2022-10-04T02:47:48.239Z,9.55
2022-10-04T02:52:55.854Z,9.42
2022-10-04T02:57:58.599Z,9.31
2022-10-04T03:03:09.304Z,9.25
2022-10-04T03:08:11.284Z,9.13
2022-10-04T03:13:14.552Z,9.18
2022-10-04T03:18:17.963Z,9.13
2022-10-04T03:23:21.247Z,9.25
2022-10-04T03:28:22.952Z,9.20
2022-10-04T03:33:29.454Z,9.11
2022-10-04T03:38:35.030Z,9.05
2022-10-04T03:43:42.583Z,8.97
2022-10-04T03:48:48.087Z,8.95
2022-10-04T03:53:53.084Z,9.13
2022-10-04T03:58:55.867Z,9.14
2022-10-04T04:04:56.117Z,9.09
2022-10-04T04:10:23.546Z,8.98
2022-10-04T04:15:28.554Z,8.85
2022-10-04T04:20:38.241Z,8.85
2022-10-04T04:25:46.641Z,8.83
2022-10-04T04:30:53.178Z,8.70
2022-10-04T04:36:02.516Z,8.72
2022-10-04T04:41:10.990Z,8.73
2022-10-04T04:46:26.993Z,8.71
2022-10-04T04:51:31.770Z,8.72
2022-10-04T04:56:34.701Z,8.71
2022-10-04T05:01:43.377Z,8.70
2022-10-04T05:06:47.363Z,8.67
2022-10-04T05:11:49.991Z,8.66
2022-10-04T05:16:54.234Z,8.72
2022-10-04T05:21:59.347Z,8.71
2022-10-04T05:27:23.159Z,8.73
2022-10-04T05:32:55.698Z,8.80
2022-10-04T05:38:24.371Z,8.77
2022-10-04T05:43:37.541Z,8.85
2022-10-04T05:48:41.594Z,8.88
2022-10-04T05:53:43.221Z,8.92
2022-10-04T05:59:26.357Z,8.89
2022-10-04T06:05:02.455Z,8.89
2022-10-04T06:10:24.984Z,8.97
2022-10-04T06:15:38.759Z,9.07
2022-10-04T06:20:51.686Z,9.23
2022-10-04T06:25:58.700Z,9.34
2022-10-04T06:31:22.030Z,9.51
2022-10-04T06:36:45.521Z,9.57
2022-10-04T06:41:47.144Z,9.58
2022-10-04T06:47:13.568Z,9.75
2022-10-04T06:52:29.325Z,9.87
2022-10-04T06:58:05.043Z,10.19
2022-10-04T07:03:21.191Z,10.42
2022-10-04T07:08:51.787Z,10.50
2022-10-04T07:14:03.438Z,10.40
2022-10-04T07:19:26.812Z,10.60
2022-10-04T07:24:38.130Z,10.80
2022-10-04T07:29:43.045Z,11.12
2022-10-04T07:34:44.472Z,11.09
2022-10-04T07:39:51.587Z,11.30
2022-10-04T07:45:19.011Z,11.82
2022-10-04T07:50:36.597Z,11.75
2022-10-04T07:55:51.479Z,12.50
2022-10-04T08:01:01.500Z,13.42
2022-10-04T08:06:12.694Z,12.96
2022-10-04T08:11:57.345Z,12.58
2022-10-04T08:17:15.465Z,12.64
2022-10-04T08:22:29.662Z,12.26
2022-10-04T08:27:43.225Z,12.23
2022-10-04T08:33:27.617Z,12.19
2022-10-04T08:38:34.984Z,12.99
2022-10-04T08:43:56.282Z,13.56
2022-10-04T08:49:55.320Z,14.44
2022-10-04T08:55:29.208Z,15.15
2022-10-04T09:00:52.396Z,14.25
2022-10-04T09:05:59.309Z,15.78
2022-10-04T09:11:22.085Z,16.35
2022-10-04T09:16:46.474Z,15.36
2022-10-04T09:21:56.821Z,14.61
2022-10-04T09:27:04.430Z,15.64
2022-10-04T09:32:27.472Z,16.84
2022-10-04T09:38:00.147Z,16.74
2022-10-04T09:43:21.138Z,17.54
2022-10-04T09:48:32.672Z,16.83
2022-10-04T09:53:42.224Z,17.81
2022-10-04T09:59:09.486Z,18.22
2022-10-04T10:04:38.084Z,19.61
2022-10-04T10:10:06.328Z,19.64
2022-10-04T10:15:22.495Z,19.25
2022-10-04T10:20:32.827Z,18.68
2022-10-04T10:26:03.979Z,18.89
2022-10-04T10:31:32.400Z,20.71
2022-10-04T10:37:09.348Z,21.10
2022-10-04T10:42:32.879Z,19.75
2022-10-04T10:47:52.369Z,20.47
2022-10-04T10:53:11.839Z,21.64
2022-10-04T10:58:47.561Z,21.01
2022-10-04T11:04:13.917Z,21.71
2022-10-04T11:09:51.060Z,21.04
2022-10-04T11:15:05.733Z,21.83
2022-10-04T11:20:32.923Z,21.43
2022-10-04T11:25:57.430Z,21.93
2022-10-04T11:30:58.977Z,22.62
2022-10-04T11:36:26.678Z,20.74
2022-10-04T11:42:01.143Z,20.80
2022-10-04T11:47:24.402Z,21.12
2022-10-04T11:52:28.558Z,22.10
2022-10-04T11:57:47.990Z,22.17
2022-10-04T12:03:04.589Z,20.75
2022-10-04T12:08:30.800Z,21.90
2022-10-04T12:13:57.475Z,22.67
2022-10-04T12:19:29.724Z,22.08
2022-10-04T12:25:02.121Z,22.49
2022-10-04T12:30:21.997Z,21.50
2022-10-04T12:35:30.711Z,22.57
2022-10-04T12:40:42.244Z,23.21
2022-10-04T12:46:21.879Z,23.64
2022-10-04T12:51:32.476Z,23.06
2022-10-04T12:56:51.011Z,23.21
2022-10-04T13:02:24.747Z,23.31
2022-10-04T13:07:35.338Z,22.51
2022-10-04T13:12:55.045Z,23.24
2022-10-04T13:18:22.390Z,21.98
2022-10-04T13:23:35.865Z,23.31
2022-10-04T13:28:50.435Z,24.23
2022-10-04T13:34:12.151Z,23.30
2022-10-04T13:39:25.522Z,23.14
2022-10-04T13:44:59.080Z,23.77
2022-10-04T13:50:15.849Z,23.61
2022-10-04T13:55:40.303Z,24.18
2022-10-04T14:01:21.926Z,23.66
2022-10-04T14:06:38.466Z,23.56
2022-10-04T14:12:05.973Z,23.32
2022-10-04T14:17:49.203Z,23.52
2022-10-04T14:23:08.807Z,23.33
2022-10-04T14:28:35.177Z,23.69
2022-10-04T14:33:47.047Z,22.98
2022-10-04T14:39:13.162Z,23.33
2022-10-04T14:44:26.157Z,23.49
2022-10-04T14:49:40.446Z,23.51
2022-10-04T14:55:08.024Z,23.21
2022-10-04T15:00:47.964Z,22.69
2022-10-04T15:05:52.406Z,22.91
2022-10-04T15:11:09.556Z,22.91
2022-10-04T15:16:36.240Z,22.52
2022-10-04T15:21:52.590Z,21.98
2022-10-04T15:27:06.084Z,22.15
2022-10-04T15:32:35.932Z,22.33
2022-10-04T15:37:49.377Z,21.71
2022-10-04T15:43:02.881Z,21.14
2022-10-04T15:48:07.345Z,20.77
2022-10-04T15:53:46.113Z,20.53
2022-10-04T15:59:06.135Z,20.32
2022-10-04T16:04:16.546Z,19.98
2022-10-04T16:09:29.849Z,19.85
2022-10-04T16:14:43.287Z,19.54
2022-10-04T16:20:25.859Z,19.27
2022-10-04T16:25:38.310Z,19.10
2022-10-04T16:30:59.488Z,18.89
2022-10-04T16:36:08.444Z,18.62
2022-10-04T16:41:15.892Z,18.27
2022-10-04T16:46:37.275Z,17.96
2022-10-04T16:51:38.861Z,17.71
2022-10-04T16:56:52.608Z,17.39
2022-10-04T17:02:36.728Z,17.16
2022-10-04T17:08:27.560Z,17.43
2022-10-04T17:13:47.610Z,17.69
2022-10-04T17:19:26.425Z,17.65
2022-10-04T17:24:33.660Z,17.38
2022-10-04T17:29:50.554Z,17.31
2022-10-04T17:34:51.975Z,17.20
2022-10-04T17:40:27.156Z,17.15
2022-10-04T17:45:46.835Z,16.83
2022-10-04T17:51:09.770Z,16.48
2022-10-04T17:56:13.548Z,16.10
2022-10-04T18:01:44.717Z,15.78
2022-10-04T18:06:53.017Z,15.54
2022-10-04T18:11:59.609Z,15.21
2022-10-04T18:17:06.313Z,15.06
2022-10-04T18:22:10.715Z,14.95
2022-10-04T18:27:25.246Z,14.94
2022-10-04T18:32:26.788Z,14.65
2022-10-04T18:37:34.859Z,14.50
2022-10-04T18:42:40.881Z,14.72
2022-10-04T18:47:42.452Z,15.02
2022-10-04T18:53:13.314Z,14.77
2022-10-04T18:58:29.652Z,14.63
2022-10-04T19:03:40.821Z,14.50
2022-10-04T19:09:06.833Z,14.26
2022-10-04T19:14:17.193Z,14.24
2022-10-04T19:19:42.190Z,13.93
2022-10-04T19:25:10.018Z,13.77
2022-10-04T19:30:30.660Z,13.53
2022-10-04T19:35:53.660Z,13.35
2022-10-04T19:41:16.694Z,13.23
2022-10-04T19:46:24.312Z,13.21
2022-10-04T19:51:43.525Z,13.23
2022-10-04T19:56:53.857Z,13.19
2022-10-04T20:01:55.753Z,13.32
2022-10-04T20:06:59.254Z,13.42
2022-10-04T20:12:01.260Z,13.52
2022-10-04T20:17:04.446Z,13.52
2022-10-04T20:22:08.760Z,13.39
2022-10-04T20:27:25.560Z,13.37
2022-10-04T20:32:27.096Z,13.32
2022-10-04T20:37:43.810Z,13.23
2022-10-04T20:43:14.380Z,12.90
2022-10-04T20:48:22.093Z,12.63
2022-10-04T20:53:31.598Z,12.50
2022-10-04T20:58:34.622Z,12.26
2022-10-04T21:03:36.145Z,12.11
2022-10-04T21:08:38.799Z,12.42
2022-10-04T21:13:55.458Z,12.31
2022-10-04T21:19:32.031Z,12.13
2022-10-04T21:24:54.355Z,12.11
2022-10-04T21:29:56.750Z,12.49
2022-10-04T21:34:58.296Z,12.68
2022-10-04T21:39:59.963Z,12.48
2022-10-04T21:45:01.574Z,12.33
2022-10-04T21:50:03.253Z,12.49
2022-10-04T21:55:05.214Z,12.57
2022-10-04T22:00:07.516Z,12.30
2022-10-04T22:05:13.901Z,12.09
2022-10-04T22:10:15.546Z,12.19
2022-10-04T22:15:17.136Z,12.30
2022-10-04T22:20:18.673Z,12.34
2022-10-04T22:25:23.053Z,12.49
2022-10-04T22:30:29.769Z,12.35
2022-10-04T22:35:31.462Z,12.41
2022-10-04T22:40:33.159Z,12.36
2022-10-04T22:45:34.759Z,12.20
2022-10-04T22:50:37.338Z,12.14
2022-10-04T22:55:40.514Z,12.01
2022-10-04T23:00:43.439Z,11.93
2022-10-04T23:05:44.958Z,12.03
2022-10-04T23:10:46.573Z,12.13
2022-10-04T23:15:48.151Z,12.10
2022-10-04T23:20:55.577Z,12.07
2022-10-04T23:25:57.216Z,12.05
2022-10-04T23:31:04.971Z,12.09
2022-10-04T23:36:13.831Z,12.15
2022-10-04T23:41:18.001Z,12.04
2022-10-04T23:46:23.385Z,11.94
2022-10-04T23:51:25.006Z,11.92
2022-10-04T23:56:29.232Z,11.80
